Time;durP1;ratioP1;P1;durP2;ratioP2;P2;SDS_P1;SDS_P2;PMS_P1;PMS_P2;Temp;Humidity;BMP_temperature;BMP_pressure;BME280_temperature;BME280_humidity;BME280_pressure;Samples;Min_cycle;Max_cycle;Signal;HPM_P1;HPM_P2
2022/03/27 00:01:44;;;;;;;7.40;6.00;;;19.20;40.60;;;;;;6126919;23;20589;-71
2022/03/27 00:04:11;;;;;;;8.77;6.65;;;19.20;40.70;;;;;;6127269;23;20184;-71
2022/03/27 00:06:40;;;;;;;7.38;6.05;;;19.10;40.70;;;;;;6151911;23;20509;-71
2022/03/27 00:09:07;;;;;;;7.15;6.10;;;19.10;40.60;;;;;;6145793;23;20193;-72
2022/03/27 00:11:34;;;;;;;7.82;6.30;;;19.00;40.70;;;;;;6164741;23;20173;-71
2022/03/27 00:14:03;;;;;;;7.60;6.43;;;19.10;40.60;;;;;;6133410;23;20165;-71
2022/03/27 00:16:30;;;;;;;8.60;6.47;;;19.00;40.60;;;;;;6129176;23;20224;-71
2022/03/27 00:18:58;;;;;;;8.00;6.40;;;19.00;40.70;;;;;;6152255;23;20178;-71
2022/03/27 00:21:25;;;;;;;7.97;6.50;;;19.00;40.50;;;;;;6153381;23;20528;-71
2022/03/27 00:23:53;;;;;;;8.02;6.43;;;19.00;40.80;;;;;;6127123;23;20353;-71
2022/03/27 00:26:21;;;;;;;7.95;6.20;;;19.00;40.90;;;;;;6148440;23;20191;-71
2022/03/27 00:28:48;;;;;;;7.03;6.07;;;19.00;40.70;;;;;;6180806;23;20180;-71
2022/03/27 00:31:15;;;;;;;8.75;6.50;;;18.90;40.80;;;;;;6155932;23;20193;-71
2022/03/27 00:33:43;;;;;;;6.97;5.88;;;18.90;40.90;;;;;;6157397;23;20173;-71
2022/03/27 00:36:13;;;;;;;8.20;6.57;;;18.90;40.90;;;;;;6157439;23;20554;-71
2022/03/27 00:38:40;;;;;;;7.57;6.15;;;18.90;40.70;;;;;;6155934;23;20198;-72
2022/03/27 00:41:09;;;;;;;9.90;6.95;;;18.90;40.90;;;;;;6155649;23;20538;-71
2022/03/27 00:43:36;;;;;;;8.85;6.22;;;18.80;40.60;;;;;;6155842;23;20567;-71
2022/03/27 00:46:03;;;;;;;8.38;6.30;;;18.80;40.90;;;;;;6181236;23;20557;-71
2022/03/27 00:48:30;;;;;;;7.75;6.20;;;18.80;40.80;;;;;;6157633;23;20248;-71
2022/03/27 00:50:57;;;;;;;6.95;6.25;;;18.80;40.80;;;;;;6157179;23;20181;-71
2022/03/27 00:53:24;;;;;;;7.75;5.93;;;18.70;41.40;;;;;;6157478;23;20168;-70
2022/03/27 00:55:51;;;;;;;8.30;6.60;;;18.70;40.70;;;;;;6180508;23;20180;-71
2022/03/27 00:58:19;;;;;;;8.43;6.22;;;18.70;40.50;;;;;;6180720;23;20232;-68
2022/03/27 01:00:52;;;;;;;7.65;6.65;;;18.70;40.60;;;;;;6155731;23;20204;-69
2022/03/27 01:03:21;;;;;;;8.43;6.38;;;18.60;40.60;;;;;;6155853;23;20173;-68
2022/03/27 01:05:49;;;;;;;7.35;6.20;;;18.60;41.20;;;;;;6180412;23;20177;-69
2022/03/27 01:08:16;;;;;;;7.68;6.28;;;18.60;40.70;;;;;;6155375;23;20443;-69
2022/03/27 01:10:42;;;;;;;7.60;5.68;;;18.60;40.60;;;;;;6155358;23;20261;-68
2022/03/27 01:13:11;;;;;;;8.25;6.03;;;18.60;40.70;;;;;;6180462;23;20617;-69
2022/03/27 01:15:42;;;;;;;7.30;6.40;;;18.60;40.90;;;;;;6157429;23;20612;-69
2022/03/27 01:18:09;;;;;;;7.40;6.38;;;18.60;40.90;;;;;;6156937;23;20500;-68
2022/03/27 01:20:37;;;;;;;9.77;6.85;;;18.60;40.90;;;;;;6156825;23;20185;-69
2022/03/27 01:23:08;;;;;;;9.00;6.18;;;18.50;40.60;;;;;;6157284;23;20169;-69
2022/03/27 01:25:36;;;;;;;7.80;5.88;;;18.50;40.60;;;;;;6180175;23;20215;-69
2022/03/27 01:28:03;;;;;;;8.90;6.20;;;18.50;40.70;;;;;;6180248;23;20260;-69
2022/03/27 01:30:30;;;;;;;8.02;6.68;;;18.50;40.70;;;;;;6180126;23;20200;-69
2022/03/27 01:32:58;;;;;;;7.43;6.30;;;18.50;40.70;;;;;;6180264;23;20177;-69
2022/03/27 01:35:24;;;;;;;7.05;6.30;;;18.50;40.90;;;;;;6155051;23;20179;-68
2022/03/27 01:37:53;;;;;;;9.45;6.80;;;18.50;40.90;;;;;;6155076;23;20179;-69
2022/03/27 01:40:20;;;;;;;7.18;6.47;;;18.40;40.70;;;;;;6154947;23;20247;-69
2022/03/27 01:42:48;;;;;;;7.45;6.10;;;18.40;40.70;;;;;;6155033;23;20227;-68
2022/03/27 01:45:15;;;;;;;6.85;6.15;;;18.40;40.80;;;;;;6180878;23;20207;-69
2022/03/27 01:47:42;;;;;;;7.43;6.40;;;18.30;40.50;;;;;;6156700;23;20531;-69
2022/03/27 01:50:10;;;;;;;8.32;6.32;;;18.40;40.80;;;;;;6156625;23;20189;-68
2022/03/27 01:52:37;;;;;;;7.57;6.70;;;18.30;40.70;;;;;;6180228;23;20656;-69
2022/03/27 01:55:07;;;;;;;6.82;6.07;;;18.30;40.90;;;;;;6155431;23;20211;-68
2022/03/27 01:57:34;;;;;;;9.43;6.35;;;18.30;40.90;;;;;;6155358;23;20172;-69
2022/03/27 02:00:04;;;;;;;7.47;6.28;;;18.30;40.80;;;;;;6179722;23;20204;-69
2022/03/27 02:02:41;;;;;;;9.23;6.50;;;18.30;40.80;;;;;;6156344;23;20259;-69
2022/03/27 02:05:08;;;;;;;8.27;6.35;;;18.20;40.90;;;;;;6179687;23;20173;-69
2022/03/27 02:07:37;;;;;;;7.75;6.35;;;18.20;40.60;;;;;;6179687;23;20176;-69
2022/03/27 02:10:06;;;;;;;8.48;6.53;;;18.20;40.80;;;;;;6154591;23;20259;-69
2022/03/27 02:12:34;;;;;;;7.25;6.40;;;18.20;40.70;;;;;;6179774;23;20222;-68
2022/03/27 02:15:01;;;;;;;7.65;5.93;;;18.20;40.80;;;;;;6154761;23;20172;-69
2022/03/27 02:17:28;;;;;;;8.52;6.70;;;18.20;41.00;;;;;;6179908;23;20169;-69
2022/03/27 02:19:56;;;;;;;7.60;6.22;;;18.20;40.70;;;;;;6179502;23;20203;-68
2022/03/27 02:22:23;;;;;;;7.60;6.80;;;18.20;40.70;;;;;;6179744;23;20189;-71
2022/03/27 02:24:50;;;;;;;7.32;6.22;;;18.10;40.60;;;;;;6183269;23;20204;-69
2022/03/27 02:27:19;;;;;;;9.30;6.72;;;18.10;40.90;;;;;;6184499;23;20184;-69
2022/03/27 02:29:46;;;;;;;7.63;6.20;;;18.10;40.70;;;;;;6159740;23;20192;-68
2022/03/27 02:32:14;;;;;;;8.35;6.32;;;18.10;40.70;;;;;;6186766;23;20235;-68
2022/03/27 02:34:41;;;;;;;6.75;6.10;;;18.10;40.80;;;;;;6186144;23;20199;-68
2022/03/27 02:37:08;;;;;;;7.10;6.22;;;18.10;40.70;;;;;;6160902;23;20548;-68
2022/03/27 02:39:35;;;;;;;6.57;5.88;;;18.00;40.60;;;;;;6159812;23;20192;-69
2022/03/27 02:42:02;;;;;;;9.25;6.80;;;18.00;40.70;;;;;;6159808;23;20263;-69
2022/03/27 02:44:31;;;;;;;7.30;6.10;;;18.00;40.60;;;;;;6184638;23;20172;-68
2022/03/27 02:46:59;;;;;;;7.15;6.30;;;18.00;40.70;;;;;;6184726;23;20176;-68
2022/03/27 02:49:26;;;;;;;10.13;7.05;;;18.00;40.70;;;;;;6184508;23;20651;-68
2022/03/27 02:51:52;;;;;;;8.40;6.18;;;18.00;40.80;;;;;;6186829;23;20188;-69
2022/03/27 02:54:21;;;;;;;7.05;6.05;;;18.00;40.80;;;;;;6187234;23;20505;-70
2022/03/27 02:57:09;;;;;;;7.90;6.70;;;18.00;40.60;;;;;;6186782;23;20164;-69
2022/03/27 02:59:38;;;;;;;8.18;6.82;;;18.00;40.60;;;;;;6184299;23;20188;-69
2022/03/27 03:02:06;;;;;;;9.18;6.80;;;17.90;40.50;;;;;;6159672;23;20522;-69
2022/03/27 03:04:34;;;;;;;7.00;6.30;;;17.90;40.50;;;;;;6184285;23;20621;-69
2022/03/27 03:07:01;;;;;;;7.38;6.60;;;17.90;40.60;;;;;;6185669;23;20215;-69
2022/03/27 03:09:28;;;;;;;7.15;6.45;;;17.90;40.60;;;;;;6184263;23;20192;-69
2022/03/27 03:11:56;;;;;;;8.93;6.20;;;17.90;40.60;;;;;;6184227;23;20199;-68
2022/03/27 03:14:23;;;;;;;8.82;6.45;;;17.90;40.50;;;;;;6184093;23;20179;-69
2022/03/27 03:16:52;;;;;;;7.88;6.65;;;17.90;40.60;;;;;;6186260;23;20168;-69
2022/03/27 03:19:19;;;;;;;8.15;6.20;;;17.90;40.40;;;;;;6184096;23;20199;-68
2022/03/27 03:21:46;;;;;;;8.18;6.90;;;17.90;40.40;;;;;;6184028;23;20187;-69
2022/03/27 03:24:14;;;;;;;7.40;6.57;;;17.80;40.20;;;;;;6184208;23;20259;-67
2022/03/27 03:26:41;;;;;;;9.60;7.18;;;17.80;40.30;;;;;;6159246;23;20184;-69
2022/03/27 03:29:08;;;;;;;7.47;6.43;;;17.80;40.30;;;;;;6184058;23;20188;-69
2022/03/27 03:31:35;;;;;;;8.60;6.80;;;17.80;40.40;;;;;;6256778;22;20660;-66
2022/03/27 03:34:03;;;;;;;8.25;6.72;;;17.80;40.60;;;;;;6253196;22;20206;-66
2022/03/27 03:36:30;;;;;;;7.65;6.20;;;17.80;40.30;;;;;;6219223;23;20175;-66
2022/03/27 03:38:58;;;;;;;7.70;6.80;;;17.80;40.40;;;;;;6219437;23;20197;-66
2022/03/27 03:41:25;;;;;;;8.70;6.60;;;17.80;40.40;;;;;;6245892;23;20186;-66
2022/03/27 03:43:52;;;;;;;9.23;6.53;;;17.80;40.30;;;;;;6219206;23;20194;-66
2022/03/27 03:46:19;;;;;;;10.32;6.97;;;17.80;40.40;;;;;;6244383;23;20171;-66
2022/03/27 03:48:46;;;;;;;8.48;6.65;;;17.80;40.20;;;;;;6244380;23;20173;-66
2022/03/27 03:51:14;;;;;;;7.82;6.97;;;17.90;40.40;;;;;;6244385;23;20177;-66
2022/03/27 03:53:41;;;;;;;7.07;6.38;;;17.80;40.50;;;;;;6246406;22;20274;-66
2022/03/27 03:56:08;;;;;;;9.73;6.80;;;17.80;40.40;;;;;;6245191;23;20228;-66
2022/03/27 03:58:36;;;;;;;7.65;6.55;;;17.80;40.40;;;;;;6245958;23;20166;-66
2022/03/27 04:01:03;;;;;;;8.95;6.40;;;17.80;40.50;;;;;;6219088;23;20171;-66
2022/03/27 04:03:31;;;;;;;7.07;6.18;;;17.80;40.40;;;;;;6219096;23;20194;-66
2022/03/27 04:05:58;;;;;;;7.03;6.32;;;17.80;40.60;;;;;;6218983;23;20175;-66
2022/03/27 04:08:26;;;;;;;6.93;5.88;;;17.80;40.50;;;;;;6219027;23;20274;-66
2022/03/27 04:10:53;;;;;;;7.65;6.22;;;17.80;40.50;;;;;;6219128;23;20170;-66
2022/03/27 04:13:21;;;;;;;9.32;6.70;;;17.80;40.50;;;;;;6219055;23;20225;-66
2022/03/27 04:15:48;;;;;;;8.80;7.00;;;17.80;40.50;;;;;;6246374;23;20170;-66
2022/03/27 04:18:15;;;;;;;8.32;6.53;;;17.80;40.40;;;;;;6244327;23;20181;-66
2022/03/27 04:20:43;;;;;;;7.63;6.38;;;17.80;40.50;;;;;;6220104;23;20262;-66
2022/03/27 04:23:10;;;;;;;8.90;6.70;;;17.80;40.40;;;;;;6245867;22;20225;-66
2022/03/27 04:25:39;;;;;;;6.88;6.18;;;17.80;40.30;;;;;;6220030;23;20597;-66
2022/03/27 04:28:06;;;;;;;6.50;5.85;;;17.80;40.20;;;;;;6220953;23;20175;-66
2022/03/27 04:30:34;;;;;;;8.93;6.40;;;17.80;40.30;;;;;;6247706;23;20175;-66
2022/03/27 04:33:01;;;;;;;7.60;6.47;;;17.80;40.10;;;;;;6245991;23;20193;-66
2022/03/27 04:35:28;;;;;;;8.65;6.75;;;17.80;40.20;;;;;;6247551;23;20679;-66
2022/03/27 04:37:55;;;;;;;8.10;6.10;;;17.80;40.20;;;;;;6245833;23;20196;-66
2022/03/27 04:40:21;;;;;;;6.80;5.95;;;17.80;40.20;;;;;;6247589;23;20499;-66
2022/03/27 04:42:50;;;;;;;7.18;6.43;;;17.80;40.00;;;;;;6245911;23;20203;-66
2022/03/27 04:45:17;;;;;;;8.10;6.47;;;17.80;39.90;;;;;;6245935;23;20224;-66
2022/03/27 04:47:45;;;;;;;7.63;6.63;;;17.90;40.00;;;;;;6245942;23;20183;-66
2022/03/27 04:50:12;;;;;;;7.45;6.65;;;17.90;40.00;;;;;;6247466;23;20167;-66
2022/03/27 04:52:39;;;;;;;7.18;6.45;;;17.90;40.00;;;;;;6245766;23;20190;-66
2022/03/27 04:55:07;;;;;;;7.32;6.45;;;17.90;40.00;;;;;;6220506;23;20174;-66
2022/03/27 04:57:35;;;;;;;7.10;6.30;;;17.80;39.90;;;;;;6220445;23;20170;-66
2022/03/27 05:00:04;;;;;;;10.38;6.70;;;17.90;40.00;;;;;;6220331;23;20175;-66
2022/03/27 05:02:31;;;;;;;7.07;6.28;;;17.90;39.90;;;;;;6220471;22;20214;-66
2022/03/27 05:04:58;;;;;;;7.80;7.00;;;17.90;39.90;;;;;;6220538;23;20229;-66
2022/03/27 05:07:26;;;;;;;8.15;6.55;;;17.90;39.60;;;;;;6245589;23;20182;-66
2022/03/27 05:09:53;;;;;;;7.22;6.22;;;17.90;40.40;;;;;;6220248;23;20508;-66
2022/03/27 05:12:20;;;;;;;9.30;6.82;;;17.80;39.50;;;;;;6219878;22;20617;-66
2022/03/27 05:14:48;;;;;;;8.07;6.43;;;17.80;39.50;;;;;;6245632;23;20174;-66
2022/03/27 05:17:16;;;;;;;7.90;6.40;;;17.90;39.60;;;;;;6245309;23;20175;-66
2022/03/27 05:19:43;;;;;;;8.38;6.78;;;17.90;39.60;;;;;;6245595;23;20194;-66
2022/03/27 05:22:10;;;;;;;9.23;6.72;;;17.90;39.60;;;;;;6220439;23;20273;-67
2022/03/27 05:24:37;;;;;;;9.13;6.70;;;17.90;39.60;;;;;;6247276;23;20250;-67
2022/03/27 05:27:05;;;;;;;7.75;6.43;;;17.90;39.60;;;;;;6247456;23;20167;-66
2022/03/27 05:29:32;;;;;;;9.05;6.50;;;17.90;39.60;;;;;;6245325;23;20175;-66
2022/03/27 05:31:59;;;;;;;8.55;6.85;;;17.90;39.60;;;;;;6247157;23;20166;-67
2022/03/27 05:34:27;;;;;;;8.70;6.88;;;17.90;39.40;;;;;;6245223;23;20190;-66
2022/03/27 05:36:55;;;;;;;9.50;6.85;;;17.90;39.50;;;;;;6244555;23;20171;-66
2022/03/27 05:39:23;;;;;;;8.07;6.82;;;17.90;39.50;;;;;;6245363;23;20179;-66
2022/03/27 05:41:50;;;;;;;10.20;6.30;;;17.90;39.40;;;;;;6245188;23;20240;-66
2022/03/27 05:44:17;;;;;;;8.65;6.68;;;17.90;39.40;;;;;;6245086;23;20199;-66
2022/03/27 05:46:44;;;;;;;8.27;7.00;;;18.00;39.50;;;;;;6245298;23;20170;-66
2022/03/27 05:49:11;;;;;;;7.90;6.68;;;18.00;39.20;;;;;;6245182;23;20708;-66
2022/03/27 05:51:40;;;;;;;6.97;6.30;;;18.00;39.30;;;;;;6245588;23;20250;-66
2022/03/27 05:54:07;;;;;;;7.45;6.70;;;18.10;40.00;;;;;;6219752;23;20252;-66
2022/03/27 05:56:35;;;;;;;7.88;7.13;;;18.00;39.20;;;;;;6220003;23;20194;-66
2022/03/27 05:59:02;;;;;;;6.82;6.10;;;18.00;39.30;;;;;;6246849;23;20250;-66
2022/03/27 06:01:29;;;;;;;7.45;6.55;;;18.00;39.40;;;;;;6219672;23;20516;-66
2022/03/27 06:03:56;;;;;;;10.60;6.68;;;18.10;39.30;;;;;;6246471;22;20274;-66
2022/03/27 06:06:23;;;;;;;9.68;6.55;;;18.10;39.00;;;;;;6244971;23;20182;-66
2022/03/27 06:08:57;;;;;;;7.53;6.80;;;18.10;39.00;;;;;;6246912;23;20269;-66
2022/03/27 06:11:24;;;;;;;7.30;6.40;;;18.10;39.10;;;;;;6219756;23;20575;-66
2022/03/27 06:13:51;;;;;;;8.98;6.68;;;18.10;39.10;;;;;;6246983;22;20228;-66
2022/03/27 06:16:18;;;;;;;8.40;6.90;;;18.20;39.10;;;;;;6246625;23;20182;-67
2022/03/27 06:18:47;;;;;;;7.50;6.70;;;18.20;39.00;;;;;;6246792;23;20282;-66
2022/03/27 06:21:14;;;;;;;9.63;7.05;;;18.20;39.50;;;;;;6220303;23;20226;-66
2022/03/27 06:23:41;;;;;;;7.88;6.78;;;18.20;38.80;;;;;;6244607;23;20220;-66
2022/03/27 06:26:34;;;;;;;7.13;6.38;;;18.20;38.80;;;;;;6246835;23;20166;-66
2022/03/27 06:29:01;;;;;;;8.05;7.03;;;18.20;38.70;;;;;;6246417;23;20281;-66
2022/03/27 06:31:29;;;;;;;7.88;7.07;;;18.20;38.70;;;;;;6244423;23;20178;-66
2022/03/27 06:33:56;;;;;;;9.55;6.80;;;18.30;38.60;;;;;;6246102;22;20706;-66
2022/03/27 06:36:23;;;;;;;8.05;6.78;;;18.30;38.70;;;;;;6246205;23;20241;-66
2022/03/27 06:38:50;;;;;;;8.60;7.57;;;18.30;38.50;;;;;;6219290;23;20178;-66
2022/03/27 06:41:17;;;;;;;7.55;6.75;;;18.40;38.40;;;;;;6246220;23;20170;-66
2022/03/27 06:43:45;;;;;;;9.52;7.15;;;18.60;38.30;;;;;;6245911;22;20203;-66
2022/03/27 06:46:16;;;;;;;8.70;6.40;;;18.80;38.10;;;;;;6219589;23;20170;-66
2022/03/27 06:48:43;;;;;;;8.07;6.90;;;19.10;38.00;;;;;;6246290;23;20581;-66
2022/03/27 06:51:10;;;;;;;7.38;6.65;;;19.40;37.40;;;;;;6219655;23;20175;-66
2022/03/27 06:53:38;;;;;;;7.38;6.63;;;19.60;37.20;;;;;;6219319;23;20530;-66
2022/03/27 06:56:05;;;;;;;9.93;7.47;;;19.70;37.00;;;;;;6245409;23;20175;-66
2022/03/27 06:58:32;;;;;;;8.82;6.95;;;19.90;36.70;;;;;;6219754;23;20194;-66
2022/03/27 07:03:45;;;;;;;8.88;7.97;;;20.20;36.40;;;;;;6219505;23;20245;-66
2022/03/27 07:06:12;;;;;;;8.35;7.55;;;20.30;36.00;;;;;;6246884;23;20197;-66
2022/03/27 07:08:39;;;;;;;9.15;7.30;;;20.50;36.50;;;;;;6219777;23;20265;-66
2022/03/27 07:11:06;;;;;;;9.00;7.65;;;20.70;35.40;;;;;;6244909;23;20174;-66
2022/03/27 07:13:34;;;;;;;8.88;7.78;;;20.80;35.00;;;;;;6220496;23;20703;-66
2022/03/27 07:16:03;;;;;;;9.98;8.25;;;21.00;34.80;;;;;;6248157;23;20169;-66
2022/03/27 07:18:30;;;;;;;9.15;7.68;;;21.10;34.70;;;;;;6220284;23;20182;-66
2022/03/27 07:20:57;;;;;;;9.70;8.27;;;21.30;34.50;;;;;;6219717;23;20228;-67
2022/03/27 07:23:24;;;;;;;10.10;8.55;;;21.40;34.20;;;;;;6246455;22;20191;-66
2022/03/27 07:25:53;;;;;;;11.25;9.73;;;21.60;34.00;;;;;;6246181;23;20501;-66
2022/03/27 07:28:21;;;;;;;9.52;8.63;;;21.70;33.50;;;;;;6219594;23;20171;-66
2022/03/27 07:30:48;;;;;;;11.18;9.95;;;21.80;33.50;;;;;;6244893;23;20206;-66
2022/03/27 07:33:16;;;;;;;11.50;9.93;;;22.00;33.10;;;;;;6244560;23;20187;-67
2022/03/27 07:35:44;;;;;;;13.68;9.65;;;22.00;32.80;;;;;;6219316;23;20193;-67
2022/03/27 07:38:11;;;;;;;12.80;9.88;;;22.10;32.70;;;;;;6244658;23;20205;-66
2022/03/27 07:40:38;;;;;;;11.90;10.27;;;22.30;32.70;;;;;;6246434;23;20163;-66
2022/03/27 07:43:05;;;;;;;13.65;10.02;;;22.40;32.80;;;;;;6246000;22;20198;-66
2022/03/27 07:45:33;;;;;;;13.30;10.23;;;22.40;32.60;;;;;;6219137;23;20171;-66
2022/03/27 07:48:00;;;;;;;9.95;8.20;;;22.60;32.50;;;;;;6245920;23;20167;-66
2022/03/27 07:50:30;;;;;;;12.15;9.50;;;22.60;32.50;;;;;;6246635;23;20607;-66
2022/03/27 07:52:57;;;;;;;8.98;8.07;;;22.70;32.30;;;;;;6220145;23;20193;-66
2022/03/27 07:55:25;;;;;;;8.90;8.00;;;22.80;32.30;;;;;;6246036;23;20213;-66
2022/03/27 07:57:52;;;;;;;7.05;6.35;;;22.90;32.30;;;;;;6245996;23;20163;-67
2022/03/27 08:00:19;;;;;;;6.47;5.90;;;23.00;32.40;;;;;;6245109;23;20229;-66
2022/03/27 08:02:46;;;;;;;6.68;5.97;;;23.10;32.40;;;;;;6220700;23;20201;-66
2022/03/27 08:05:13;;;;;;;6.85;5.57;;;23.20;32.30;;;;;;6221000;23;20185;-66
2022/03/27 08:07:42;;;;;;;6.30;5.55;;;23.20;32.20;;;;;;6247683;23;20242;-66
2022/03/27 08:10:09;;;;;;;6.35;5.75;;;23.30;32.20;;;;;;6246060;23;20177;-66
2022/03/27 08:12:37;;;;;;;7.00;5.78;;;23.30;32.00;;;;;;6247718;22;20521;-66
2022/03/27 08:15:29;;;;;;;6.95;6.20;;;23.40;32.00;;;;;;6258439;23;20159;-66
2022/03/27 08:18:21;;;;;;;7.05;6.07;;;23.40;31.90;;;;;;6248078;23;20178;-66
2022/03/27 08:20:49;;;;;;;5.50;5.00;;;23.50;31.80;;;;;;6246128;23;20205;-66
2022/03/27 08:23:17;;;;;;;7.60;5.68;;;23.50;31.80;;;;;;6220716;23;20194;-66
2022/03/27 08:28:28;;;;;;;6.80;5.75;;;23.70;32.00;;;;;;6247693;23;20193;-66
2022/03/27 08:30:55;;;;;;;5.93;5.35;;;23.80;31.80;;;;;;6247732;23;20710;-66
2022/03/27 08:33:23;;;;;;;6.95;5.25;;;23.90;31.80;;;;;;6247517;22;20736;-66
2022/03/27 08:35:50;;;;;;;7.03;5.30;;;24.00;32.00;;;;;;6247786;23;20220;-66
2022/03/27 08:38:18;;;;;;;7.68;5.68;;;24.00;31.70;;;;;;6247671;23;20163;-66
2022/03/27 08:40:47;;;;;;;6.78;5.50;;;24.10;32.80;;;;;;6220663;23;20171;-66
2022/03/27 08:43:14;;;;;;;7.03;5.57;;;24.00;32.10;;;;;;6220421;23;20201;-66
2022/03/27 08:45:42;;;;;;;7.50;5.53;;;24.10;32.10;;;;;;6220587;22;20829;-70
2022/03/27 08:48:09;;;;;;;37.47;13.63;;;24.10;33.90;;;;;;6250647;23;20201;-70
2022/03/27 08:50:39;;;;;;;41.50;17.27;;;24.10;33.20;;;;;;6257553;22;20210;-70
2022/03/27 08:53:07;;;;;;;58.80;25.33;;;24.10;33.20;;;;;;6224041;23;20473;-70
2022/03/27 08:55:46;;;;;;;50.45;21.10;;;24.20;33.20;;;;;;6224278;23;20170;-70
2022/03/27 08:58:14;;;;;;;54.35;25.67;;;24.20;32.90;;;;;;6228483;23;20175;-70
2022/03/27 09:00:44;;;;;;;64.40;27.83;;;24.20;33.90;;;;;;6234065;23;20187;-70
2022/03/27 09:03:12;;;;;;;55.08;24.13;;;24.30;34.40;;;;;;6231583;23;20187;-71
2022/03/27 09:05:39;;;;;;;51.70;23.80;;;24.30;34.00;;;;;;6224683;23;20177;-71
2022/03/27 09:08:09;;;;;;;48.85;20.95;;;24.30;33.90;;;;;;6222306;23;20170;-70
2022/03/27 09:10:36;;;;;;;49.85;22.15;;;24.30;33.50;;;;;;6222831;23;20297;-70
2022/03/27 09:13:06;;;;;;;41.67;20.63;;;24.30;33.60;;;;;;6223153;23;20170;-70
2022/03/27 09:15:33;;;;;;;38.67;19.15;;;24.30;34.20;;;;;;6222849;23;20275;-70
2022/03/27 09:18:02;;;;;;;37.65;18.55;;;24.30;33.70;;;;;;6248442;23;20261;-70
2022/03/27 09:20:37;;;;;;;36.42;18.38;;;24.30;33.70;;;;;;6250663;22;20179;-70
2022/03/27 09:23:19;;;;;;;33.63;17.80;;;24.30;33.80;;;;;;6250728;23;20182;-70
2022/03/27 09:25:48;;;;;;;34.47;17.73;;;24.30;33.70;;;;;;6256751;23;20224;-71
2022/03/27 09:30:55;;;;;;;36.50;17.10;;;24.30;34.00;;;;;;6133211;23;20176;-67
2022/03/27 09:33:46;;;;;;;32.47;16.60;;;24.30;33.70;;;;;;6132942;23;20169;-70
2022/03/27 09:36:15;;;;;;;28.77;16.15;;;24.30;34.40;;;;;;6132132;23;20169;-70
2022/03/27 09:38:42;;;;;;;31.60;15.90;;;24.40;34.20;;;;;;6137722;23;20202;-70
2022/03/27 09:41:31;;;;;;;30.90;16.42;;;24.30;34.80;;;;;;6161288;23;20198;-70
2022/03/27 09:44:02;;;;;;;31.08;15.27;;;24.30;34.40;;;;;;6160864;23;20202;-70
2022/03/27 09:46:45;;;;;;;32.85;14.95;;;24.30;35.40;;;;;;6200221;23;20195;-66
2022/03/27 09:49:12;;;;;;;29.27;15.35;;;24.30;34.50;;;;;;6217175;23;20483;-65
2022/03/27 09:51:51;;;;;;;30.73;14.73;;;24.30;34.50;;;;;;6217749;23;20200;-66
2022/03/27 09:54:18;;;;;;;29.52;13.57;;;24.30;34.70;;;;;;6190916;23;20534;-65
2022/03/27 09:56:46;;;;;;;25.48;13.57;;;24.30;34.30;;;;;;6197974;22;20198;-65
2022/03/27 10:02:20;;;;;;;26.73;14.35;;;24.20;34.30;;;;;;6217145;22;20286;-69
2022/03/27 10:05:01;;;;;;;26.00;13.02;;;24.20;34.30;;;;;;6191043;23;20524;-69
2022/03/27 10:07:33;;;;;;;22.40;12.80;;;24.20;34.30;;;;;;6217120;23;20238;-70
2022/03/27 10:10:00;;;;;;;22.40;12.73;;;24.20;35.00;;;;;;6216719;23;20326;-69
2022/03/27 10:12:28;;;;;;;25.50;13.13;;;24.20;34.30;;;;;;6198562;23;20608;-70
2022/03/27 10:14:59;;;;;;;24.95;12.88;;;24.10;34.30;;;;;;6187853;23;20546;-69
2022/03/27 10:22:47;;;;;;;21.90;11.68;;;24.10;34.30;;;;;;6102524;23;20169;-70
2022/03/27 10:27:50;;;;;;;19.70;10.88;;;24.20;34.50;;;;;;6211728;22;20203;-64
2022/03/27 10:30:17;;;;;;;21.17;11.55;;;24.20;34.60;;;;;;6221672;23;20168;-64
2022/03/27 10:32:45;;;;;;;21.40;11.65;;;24.20;34.50;;;;;;6218223;23;20321;-63
2022/03/27 10:35:25;;;;;;;21.48;10.75;;;24.20;34.80;;;;;;6189750;23;20565;-62
2022/03/27 10:38:00;;;;;;;21.80;10.55;;;24.10;34.90;;;;;;6192840;23;20680;-66
2022/03/27 10:40:33;;;;;;;19.02;10.30;;;24.20;35.00;;;;;;6190758;23;20175;-66
2022/03/27 10:43:06;;;;;;;17.85;10.25;;;24.20;35.30;;;;;;6207078;23;20180;-66
2022/03/27 10:45:35;;;;;;;17.27;10.15;;;24.10;35.50;;;;;;6160873;23;20171;-66
2022/03/27 10:48:16;;;;;;;21.42;10.38;;;24.00;35.60;;;;;;6161255;23;20204;-66
2022/03/27 10:50:47;;;;;;;24.05;9.70;;;24.00;35.80;;;;;;6166188;23;20234;-68
2022/03/27 11:04:44;;;;;;;18.75;9.20;;;23.90;34.90;;;;;;6233498;22;20225;-65
2022/03/27 11:09:51;;;;;;;16.45;11.40;;;23.90;31.90;;;;;;6214428;22;20210;-63
2022/03/27 11:15:41;;;;;;;14.88;11.25;;;23.70;28.70;;;;;;6177618;23;20548;-65
2022/03/27 11:18:11;;;;;;;17.95;11.10;;;23.60;28.50;;;;;;6214871;22;20295;-70
2022/03/27 11:30:13;;;;;;;16.40;11.18;;;23.30;28.60;;;;;;6157473;23;20180;-70
2022/03/27 11:33:09;;;;;;;18.23;11.10;;;23.20;28.50;;;;;;6131054;23;20176;-69
2022/03/27 11:35:37;;;;;;;16.92;11.73;;;23.20;28.10;;;;;;6149456;23;20177;-69
2022/03/27 11:38:19;;;;;;;13.23;10.75;;;23.10;28.00;;;;;;6127747;23;20194;-69
2022/03/27 11:40:47;;;;;;;13.38;10.35;;;23.10;28.10;;;;;;6127747;23;20663;-69
2022/03/27 11:43:30;;;;;;;20.13;10.82;;;23.00;28.20;;;;;;6103120;23;20197;-69
2022/03/27 11:45:59;;;;;;;14.70;9.95;;;23.00;27.70;;;;;;6189621;22;20216;-70
2022/03/27 11:48:26;;;;;;;14.48;9.70;;;23.00;28.10;;;;;;6231085;22;20183;-71
2022/03/27 11:53:32;;;;;;;12.63;9.23;;;22.90;28.50;;;;;;6158465;23;20179;-70
2022/03/27 11:56:07;;;;;;;13.23;8.82;;;23.00;29.20;;;;;;6132406;23;20177;-70
2022/03/27 11:58:35;;;;;;;13.88;8.35;;;22.90;29.30;;;;;;6138576;23;20209;-70
2022/03/27 12:01:09;;;;;;;14.43;8.43;;;22.90;29.30;;;;;;6103622;23;20257;-71
2022/03/27 12:03:36;;;;;;;13.60;8.27;;;22.90;29.40;;;;;;6129814;23;20563;-70
2022/03/27 12:06:07;;;;;;;12.20;8.70;;;22.90;29.60;;;;;;6103084;23;20177;-70
2022/03/27 12:08:35;;;;;;;11.82;7.97;;;22.80;29.70;;;;;;6103323;23;20201;-70
2022/03/27 12:11:06;;;;;;;9.27;7.80;;;22.80;29.70;;;;;;6139238;23;20208;-69
2022/03/27 12:13:38;;;;;;;10.20;7.30;;;22.90;29.60;;;;;;6178720;22;20203;-77
2022/03/27 12:16:07;;;;;;;10.93;7.43;;;22.90;30.00;;;;;;6215048;22;20203;-64
2022/03/27 12:21:20;;;;;;;7.40;6.00;;;23.00;30.30;;;;;;6216165;22;20218;-70
2022/03/27 12:29:49;;;;;;;12.65;7.00;;;23.10;31.10;;;;;;6215369;22;20692;-64
2022/03/27 12:32:18;;;;;;;8.68;6.00;;;23.20;31.10;;;;;;6216741;23;20625;-64
2022/03/27 12:34:46;;;;;;;9.85;5.90;;;23.20;31.30;;;;;;6187692;23;20164;-64
2022/03/27 12:37:16;;;;;;;12.80;5.95;;;23.20;31.40;;;;;;6187766;23;20164;-64
2022/03/27 12:40:03;;;;;;;8.18;5.60;;;23.20;31.60;;;;;;6187701;23;20168;-64
2022/03/27 12:42:36;;;;;;;8.20;5.90;;;23.20;31.70;;;;;;6185934;23;20226;-64
2022/03/27 12:45:06;;;;;;;7.95;5.82;;;23.30;31.90;;;;;;6164184;23;20215;-70
2022/03/27 12:47:36;;;;;;;10.02;5.90;;;23.30;32.00;;;;;;6213637;22;20263;-68
2022/03/27 12:50:04;;;;;;;9.32;6.47;;;23.30;32.20;;;;;;6190982;23;20175;-68
2022/03/27 12:52:31;;;;;;;11.40;5.50;;;23.30;32.30;;;;;;6217470;23;20167;-70
2022/03/27 12:55:00;;;;;;;7.63;5.53;;;23.30;32.30;;;;;;6190811;23;20172;-70
2022/03/27 12:57:48;;;;;;;8.45;5.70;;;23.30;32.40;;;;;;6165052;23;20681;-69
2022/03/27 13:00:16;;;;;;;9.35;5.95;;;23.40;32.50;;;;;;6161252;23;20172;-71
2022/03/27 13:02:45;;;;;;;8.27;5.40;;;23.40;32.50;;;;;;6160692;23;20191;-70
2022/03/27 13:05:15;;;;;;;7.10;4.80;;;23.40;32.60;;;;;;6161271;23;20211;-70
2022/03/27 13:07:55;;;;;;;8.55;5.45;;;23.40;32.90;;;;;;6160698;23;20188;-71
2022/03/27 13:10:23;;;;;;;8.52;5.65;;;23.40;33.80;;;;;;6160859;23;20183;-70
2022/03/27 13:13:13;;;;;;;8.10;5.25;;;23.50;34.30;;;;;;6160773;23;20251;-70
2022/03/27 13:18:16;;;;;;;7.40;5.10;;;23.50;34.60;;;;;;6158736;23;20173;-70
2022/03/27 13:20:43;;;;;;;8.13;5.28;;;23.50;35.00;;;;;;6159397;23;20207;-70
2022/03/27 13:23:10;;;;;;;7.45;4.60;;;23.50;34.90;;;;;;6132667;23;20183;-70
2022/03/27 13:25:38;;;;;;;7.20;5.30;;;23.50;35.10;;;;;;6134388;23;20193;-70
2022/03/27 13:28:05;;;;;;;6.50;5.30;;;23.50;35.30;;;;;;6162293;23;20501;-70
2022/03/27 13:30:33;;;;;;;7.00;5.50;;;23.50;35.10;;;;;;6163106;23;20620;-70
2022/03/27 13:38:26;;;;;;;8.23;5.13;;;23.50;34.30;;;;;;6217388;23;20633;-52
2022/03/27 13:46:20;;;;;;;7.50;5.68;;;23.50;34.40;;;;;;6133502;23;20200;-71
2022/03/27 13:48:47;;;;;;;7.05;5.07;;;23.50;34.10;;;;;;6157610;23;20169;-71
2022/03/27 13:51:14;;;;;;;7.03;4.95;;;23.50;34.00;;;;;;6157370;23;20239;-71
2022/03/27 13:53:43;;;;;;;5.65;4.80;;;23.50;34.30;;;;;;6132377;23;20621;-71
2022/03/27 13:56:10;;;;;;;5.25;4.72;;;23.50;34.20;;;;;;6160284;23;20176;-71
2022/03/27 13:58:37;;;;;;;5.22;4.35;;;23.50;34.20;;;;;;6186657;23;20164;-71
2022/03/27 14:01:04;;;;;;;7.80;4.75;;;23.50;34.30;;;;;;6160476;23;20612;-71
2022/03/27 14:03:32;;;;;;;6.05;4.82;;;23.50;34.30;;;;;;6187817;23;20235;-71